West Harrison, New York
Current Conditions -  °F | °C
As of 2:56 PM on Thursday 29 Jan 2015 (Local Time) from KHPN Reporting Station
Broken Clouds Broken Clouds  
Wind Chill: 22°   Ceiling: 11000
Heat Index: 30°   Visibility: 10mi
Dew Point: 11°   Wind: 8mph
Humidity: 45%   Direction: 140°SE
Pressure: 30.16"   Gusts: NA
Location:  41.04°N, 73.75°W
Report Text: KHPN 291956Z 14007KT 10SM BKN110 M01/M12 A3016 RMK AO2 SLP223 T10111117
Loading
Personal Weather Stations






























Interactive Weather Map New forecast layout! Learn more

10-Day Weather Forecast

Advertisements
Track Severe Weather on mobile